createdAt,value
2018-12-23T00:01:07.744Z,100803.13
2018-12-23T00:06:03.736Z,100795.17
2018-12-23T00:10:59.728Z,100803.02
2018-12-23T00:15:55.716Z,100824.83
2018-12-23T00:20:51.710Z,100810.22
2018-12-23T00:25:47.808Z,100815.79
2018-12-23T00:30:43.802Z,100821.53
2018-12-23T00:35:39.780Z,100817.59
2018-12-23T00:40:35.773Z,100816.11
2018-12-23T00:45:31.758Z,100815.79
2018-12-23T00:50:27.753Z,100817.27
2018-12-23T00:55:23.742Z,100828.94
2018-12-23T01:00:19.703Z,100841.38
2018-12-23T01:05:15.700Z,100854.14
2018-12-23T01:10:11.702Z,100853.20
2018-12-23T01:15:07.900Z,100843.05
2018-12-23T01:20:06.015Z,100863.69
2018-12-23T01:25:02.437Z,100852.23
2018-12-23T01:29:58.438Z,100859.56
2018-12-23T01:34:54.429Z,100860.72
2018-12-23T01:39:50.400Z,100862.02
2018-12-23T01:44:46.397Z,100871.20
2018-12-23T01:49:42.381Z,100861.73
2018-12-23T01:54:38.362Z,100869.06
2018-12-23T01:59:34.353Z,100865.31
2018-12-23T02:04:30.348Z,100869.67
2018-12-23T02:09:26.347Z,100879.35
2018-12-23T02:14:22.337Z,100877.41
2018-12-23T02:19:18.328Z,100876.92
2018-12-23T02:24:14.313Z,100870.53
2018-12-23T02:29:10.296Z,100877.71
2018-12-23T02:34:06.293Z,100877.71
2018-12-23T02:39:04.308Z,100888.52
2018-12-23T02:44:00.301Z,100879.35
2018-12-23T02:48:56.298Z,100898.02
2018-12-23T02:53:52.289Z,100886.86
2018-12-23T02:58:48.324Z,100893.39
2018-12-23T03:03:44.403Z,100879.47
2018-12-23T03:08:40.387Z,100881.13
2018-12-23T03:13:36.378Z,100894.07
2018-12-23T03:18:32.368Z,100894.05
2018-12-23T03:23:28.356Z,100889.27
2018-12-23T03:28:25.060Z,100883.55
2018-12-23T03:33:21.057Z,100872.09
2018-12-23T03:38:17.050Z,100866.50
2018-12-23T03:43:13.062Z,100880.58
2018-12-23T03:48:09.038Z,100866.17
2018-12-23T03:53:05.025Z,100871.39
2018-12-23T03:58:06.090Z,100874.36
2018-12-23T04:03:08.953Z,100878.45
2018-12-23T04:08:04.946Z,100878.60
2018-12-23T04:13:00.934Z,100879.91
2018-12-23T04:17:57.047Z,100878.28
2018-12-23T04:22:53.090Z,100881.37
2018-12-23T04:27:51.750Z,100891.05
2018-12-23T04:32:47.816Z,100879.06
2018-12-23T04:37:50.778Z,100878.91
2018-12-23T04:42:46.777Z,100878.28
2018-12-23T04:47:42.762Z,100883.52
2018-12-23T04:52:38.749Z,100870.75
2018-12-23T04:57:36.303Z,100860.92
2018-12-23T05:02:32.352Z,100869.27
2018-12-23T05:07:28.342Z,100870.06
2018-12-23T05:12:24.342Z,100869.11
2018-12-23T05:17:20.328Z,100877.58
2018-12-23T05:22:16.340Z,100861.90
2018-12-23T05:27:12.341Z,100850.92
2018-12-23T05:32:08.353Z,100856.47
2018-12-23T05:37:04.353Z,100851.09
2018-12-23T05:42:00.461Z,100848.97
2018-12-23T05:46:56.444Z,100861.42
2018-12-23T05:51:52.433Z,100863.38
2018-12-23T05:56:48.432Z,100856.02
2018-12-23T06:01:44.468Z,100862.88
2018-12-23T06:06:40.462Z,100859.12
2018-12-23T06:11:36.455Z,100866.81
2018-12-23T06:16:32.453Z,100862.59
2018-12-23T06:21:28.459Z,100881.27
2018-12-23T06:26:24.476Z,100871.74
2018-12-23T06:31:20.550Z,100870.45
2018-12-23T06:36:18.934Z,100877.16
2018-12-23T06:41:14.933Z,100874.73
2018-12-23T06:46:10.989Z,100881.27
2018-12-23T06:51:07.168Z,100878.66
2018-12-23T06:56:03.181Z,100879.42
2018-12-23T07:00:59.457Z,100882.72
2018-12-23T07:05:55.459Z,100879.25
2018-12-23T07:10:51.449Z,100880.89
2018-12-23T07:15:47.457Z,100887.63
2018-12-23T07:20:43.489Z,100888.41
2018-12-23T07:25:39.510Z,100902.66
2018-12-23T07:30:35.547Z,100901.19
2018-12-23T07:35:31.613Z,100902.52
2018-12-23T07:40:27.695Z,100901.19
2018-12-23T07:45:23.792Z,100907.27
2018-12-23T07:50:19.852Z,100900.40
2018-12-23T07:55:15.877Z,100903.81
2018-12-23T08:00:11.951Z,100897.92
2018-12-23T08:05:07.996Z,100896.30
2018-12-23T08:21:14.421Z,100888.10
2018-12-23T08:26:10.493Z,100885.16
2018-12-23T08:31:06.658Z,100886.14
2018-12-23T08:36:02.866Z,100890.08
2018-12-23T08:40:58.933Z,100874.02
2018-12-23T08:45:54.996Z,100873.36
2018-12-23T08:50:51.041Z,100874.66
2018-12-23T08:55:47.067Z,100870.70
2018-12-23T09:00:43.113Z,100866.72
2018-12-23T09:05:39.128Z,100868.36
2018-12-23T09:10:35.200Z,100866.72
2018-12-23T09:15:31.270Z,100863.77
2018-12-23T09:20:27.313Z,100867.32
2018-12-23T09:25:44.001Z,100857.19
2018-12-23T09:30:40.919Z,100852.58
2018-12-23T09:35:58.141Z,100863.72
2018-12-23T09:40:55.164Z,100864.50
2018-12-23T09:45:51.408Z,100858.27
2018-12-23T09:50:47.552Z,100853.17
2018-12-23T09:55:43.919Z,100846.89
2018-12-23T10:00:40.129Z,100850.47
2018-12-23T10:11:21.475Z,100841.34
2018-12-23T10:21:33.783Z,100837.36
2018-12-23T10:26:33.471Z,100832.08
2018-12-23T10:31:31.079Z,100821.26
2018-12-23T10:47:09.319Z,100800.94
2018-12-23T10:52:28.025Z,100801.45
2018-12-23T11:03:11.188Z,100776.42
2018-12-23T11:14:06.511Z,100768.23
2018-12-23T11:19:07.978Z,100753.81
2018-12-23T11:24:25.900Z,100742.16
2018-12-23T11:29:28.961Z,100729.27
2018-12-23T11:34:48.703Z,100723.10
2018-12-23T11:40:09.705Z,100718.08
2018-12-23T11:50:11.359Z,100699.73
2018-12-23T12:01:06.554Z,100689.42
2018-12-23T12:06:25.583Z,100678.93
2018-12-23T12:11:23.815Z,100664.95
2018-12-23T12:16:21.070Z,100657.49
2018-12-23T12:33:12.942Z,100645.88
2018-12-23T12:38:52.206Z,100634.47
2018-12-23T12:44:09.814Z,100624.21
2018-12-23T12:49:48.651Z,100620.83
2018-12-23T13:00:52.158Z,100608.34
2018-12-23T13:11:56.927Z,100598.87
2018-12-23T13:28:18.368Z,100606.09
2018-12-23T13:33:15.413Z,100592.66
2018-12-23T13:38:12.466Z,100571.25
2018-12-23T13:43:48.971Z,100571.15
2018-12-23T13:49:07.997Z,100551.77
2018-12-23T13:54:45.816Z,100558.52
2018-12-23T14:00:21.644Z,100542.03
2018-12-23T14:05:59.467Z,100546.85
2018-12-23T14:11:37.239Z,100552.52
2018-12-23T14:16:33.275Z,100533.95
2018-12-23T14:21:30.314Z,100532.77
2018-12-23T14:26:26.569Z,100522.67
2018-12-23T14:31:22.701Z,100513.91
2018-12-23T14:36:18.933Z,100500.77
2018-12-23T14:41:14.994Z,100498.63
2018-12-23T14:46:11.042Z,100479.81
2018-12-23T14:51:29.282Z,100474.91
2018-12-23T14:56:25.520Z,100472.02
2018-12-23T15:01:21.662Z,100463.40
2018-12-23T15:06:17.703Z,100471.20
2018-12-23T15:11:13.836Z,100471.39
2018-12-23T15:16:09.878Z,100458.50
2018-12-23T15:21:05.931Z,100461.73
2018-12-23T15:26:01.977Z,100451.03
2018-12-23T15:30:58.066Z,100438.23
2018-12-23T15:35:54.159Z,100442.16
2018-12-23T15:40:51.237Z,100444.25
2018-12-23T15:45:47.722Z,100434.82
2018-12-23T15:50:45.022Z,100418.97
2018-12-23T15:55:43.017Z,100412.01
2018-12-23T16:00:59.328Z,100411.73
2018-12-23T16:05:56.584Z,100399.33
2018-12-23T16:10:53.147Z,100384.75
2018-12-23T16:15:51.443Z,100380.41
2018-12-23T16:21:07.336Z,100359.82
2018-12-23T16:26:03.366Z,100361.82
2018-12-23T16:30:59.389Z,100361.38
2018-12-23T16:35:55.496Z,100353.79
2018-12-23T16:40:51.541Z,100350.77
2018-12-23T16:45:47.842Z,100355.23
2018-12-23T16:50:44.058Z,100342.94
2018-12-23T16:55:40.072Z,100337.53
2018-12-23T17:00:36.200Z,100329.20
2018-12-23T17:05:33.766Z,100336.55
2018-12-23T17:10:29.821Z,100332.84
2018-12-23T17:15:25.875Z,100311.22
2018-12-23T17:20:25.381Z,100314.95
2018-12-23T17:25:21.602Z,100322.37
2018-12-23T17:30:17.643Z,100312.86
2018-12-23T17:35:33.661Z,100304.45
2018-12-23T17:40:30.247Z,100281.79
2018-12-23T17:45:27.847Z,100269.59
2018-12-23T17:50:24.015Z,100278.79
2018-12-23T17:55:20.054Z,100279.17
2018-12-23T18:00:16.192Z,100287.95
2018-12-23T18:05:12.234Z,100318.23
2018-12-23T18:10:08.249Z,100322.52
2018-12-23T18:15:45.950Z,100321.77
2018-12-23T18:20:41.968Z,100333.30
2018-12-23T18:25:37.988Z,100316.70
2018-12-23T18:30:34.318Z,100302.66
2018-12-23T18:35:30.521Z,100327.43
2018-12-23T18:40:33.348Z,100296.76
2018-12-23T18:45:24.591Z,100286.13
2018-12-23T18:50:20.591Z,100283.34
2018-12-23T18:55:16.631Z,100272.94
2018-12-23T19:00:12.845Z,100263.66
2018-12-23T19:05:08.961Z,100278.75
2018-12-23T19:10:46.636Z,100276.78
2018-12-23T19:16:24.295Z,100282.95
2018-12-23T19:22:01.956Z,100289.11
2018-12-23T19:27:39.260Z,100288.83
2018-12-23T19:33:15.121Z,100275.10
2018-12-23T19:38:52.970Z,100286.70
2018-12-23T19:44:28.827Z,100287.87
2018-12-23T19:50:06.476Z,100277.15
2018-12-23T19:55:44.126Z,100286.88
2018-12-23T20:01:21.907Z,100296.59
2018-12-23T20:06:57.658Z,100289.22
2018-12-23T20:12:33.411Z,100300.70
2018-12-23T20:18:11.067Z,100279.27
2018-12-23T20:23:46.821Z,100283.66
2018-12-23T20:29:22.573Z,100287.73
2018-12-23T20:34:58.334Z,100299.39
2018-12-23T20:40:36.012Z,100303.54
2018-12-23T20:46:11.762Z,100325.39
2018-12-23T20:51:49.418Z,100318.77
2018-12-23T20:57:25.167Z,100306.97
2018-12-23T21:03:00.951Z,100310.06
2018-12-23T21:08:38.641Z,100311.77
2018-12-23T21:14:16.301Z,100308.20
2018-12-23T21:19:38.882Z,100327.48
2018-12-23T21:24:56.463Z,100322.64
2018-12-23T21:30:34.123Z,100321.36
2018-12-23T21:36:12.152Z,100336.92
2018-12-23T21:41:49.819Z,100352.45
2018-12-23T21:47:25.573Z,100347.27
2018-12-23T21:53:03.257Z,100374.34
2018-12-23T22:04:36.193Z,100367.52
2018-12-23T22:10:13.845Z,100378.27
2018-12-23T22:15:09.858Z,100385.44
2018-12-23T22:20:05.980Z,100388.41
2018-12-23T22:25:02.007Z,100401.77
2018-12-23T22:29:58.019Z,100414.16
2018-12-23T22:34:54.007Z,100422.69
2018-12-23T22:39:50.141Z,100429.23
2018-12-23T22:44:46.151Z,100433.78
2018-12-23T22:49:42.171Z,100446.67
2018-12-23T22:54:38.185Z,100441.59
2018-12-23T22:59:34.199Z,100441.45
2018-12-23T23:04:30.214Z,100444.71
2018-12-23T23:09:26.237Z,100447.16
2018-12-23T23:14:22.246Z,100462.12
2018-12-23T23:19:18.265Z,100458.88
2018-12-23T23:24:14.274Z,100470.97
2018-12-23T23:29:10.299Z,100474.55
2018-12-23T23:34:06.526Z,100473.25
2018-12-23T23:39:44.192Z,100465.74
2018-12-23T23:44:40.206Z,100467.53
2018-12-23T23:49:36.227Z,100473.86
2018-12-23T23:54:32.241Z,100485.14
2018-12-23T23:59:28.254Z,100494.44
